createdAt,value
2023-04-16T00:02:02.417Z,5.56
2023-04-16T00:05:02.467Z,5.57
2023-04-16T00:08:02.360Z,5.57
2023-04-16T00:11:02.366Z,5.59
2023-04-16T00:14:03.347Z,5.60
2023-04-16T00:17:04.349Z,5.61
2023-04-16T00:20:04.338Z,5.60
2023-04-16T00:23:04.307Z,5.62
2023-04-16T00:26:05.325Z,5.64
2023-04-16T00:29:05.318Z,5.63
2023-04-16T00:32:05.382Z,5.62
2023-04-16T00:35:05.363Z,5.63
2023-04-16T00:38:05.472Z,5.63
2023-04-16T00:41:05.382Z,5.60
2023-04-16T00:44:05.503Z,5.61
2023-04-16T00:47:05.377Z,5.63
2023-04-16T00:50:05.438Z,5.65
2023-04-16T00:53:05.370Z,5.65
2023-04-16T00:56:05.407Z,5.66
2023-04-16T00:59:05.443Z,5.67
2023-04-16T01:02:05.546Z,5.68
2023-04-16T01:05:06.389Z,5.68
2023-04-16T01:08:09.404Z,5.69
2023-04-16T01:11:09.461Z,5.70
2023-04-16T01:14:09.476Z,5.70
2023-04-16T01:17:10.455Z,5.70
2023-04-16T01:20:13.454Z,5.71
2023-04-16T01:23:13.396Z,5.72
2023-04-16T01:26:15.474Z,5.71
2023-04-16T01:29:20.610Z,5.71
2023-04-16T01:32:21.501Z,5.70
2023-04-16T01:35:24.639Z,5.71
2023-04-16T01:38:26.491Z,5.72
2023-04-16T01:41:26.457Z,5.74
2023-04-16T01:44:27.461Z,5.74
2023-04-16T01:47:27.499Z,5.73
2023-04-16T01:50:27.431Z,5.74
2023-04-16T01:53:28.455Z,5.74
2023-04-16T01:56:30.615Z,5.74
2023-04-16T01:59:30.477Z,5.76
2023-04-16T02:02:33.598Z,5.77
2023-04-16T02:05:33.492Z,5.79
2023-04-16T02:08:33.509Z,5.80
2023-04-16T02:11:34.523Z,5.81
2023-04-16T02:14:34.544Z,5.81
2023-04-16T02:17:34.555Z,5.82
2023-04-16T02:20:35.619Z,5.82
2023-04-16T02:23:35.544Z,5.82
2023-04-16T02:26:36.525Z,5.84
2023-04-16T02:29:41.504Z,5.84
2023-04-16T02:32:42.570Z,5.84
2023-04-16T02:35:43.608Z,5.84
2023-04-16T02:38:44.544Z,5.84
2023-04-16T02:41:44.573Z,5.84
2023-04-16T02:44:44.601Z,5.85
2023-04-16T02:47:45.610Z,5.87
2023-04-16T02:50:45.674Z,5.89
2023-04-16T02:53:45.688Z,5.90
2023-04-16T02:56:48.618Z,5.91
2023-04-16T02:59:48.588Z,5.92
2023-04-16T03:02:49.787Z,5.92
2023-04-16T03:05:50.614Z,5.93
2023-04-16T03:08:52.638Z,5.94
2023-04-16T03:11:53.649Z,5.92
2023-04-16T03:14:55.626Z,5.91
2023-04-16T03:17:56.669Z,5.91
2023-04-16T03:20:56.621Z,5.92
2023-04-16T03:24:02.653Z,5.94
2023-04-16T03:27:02.653Z,5.98
2023-04-16T03:30:02.665Z,6.01
2023-04-16T03:33:02.680Z,6.04
2023-04-16T03:36:07.630Z,6.05
2023-04-16T03:39:07.892Z,6.07
2023-04-16T03:42:07.654Z,6.09
2023-04-16T03:45:08.681Z,6.09
2023-04-16T03:48:08.647Z,6.12
2023-04-16T03:51:09.685Z,6.10
2023-04-16T03:54:09.789Z,6.09
2023-04-16T03:57:11.735Z,6.11
2023-04-16T04:00:11.725Z,6.11
2023-04-16T04:03:25.297Z,6.09
2023-04-16T04:06:25.718Z,6.08
2023-04-16T04:09:25.761Z,6.09
2023-04-16T04:12:26.733Z,6.07
2023-04-16T04:15:26.784Z,6.07
2023-04-16T04:18:26.805Z,6.08
2023-04-16T04:21:26.759Z,6.11
2023-04-16T04:24:33.744Z,6.12
2023-04-16T04:27:36.902Z,6.12
2023-04-16T04:30:36.758Z,6.14
2023-04-16T04:33:36.747Z,6.16
2023-04-16T04:36:36.801Z,6.18
2023-04-16T04:39:38.823Z,6.18
2023-04-16T04:42:38.802Z,6.18
2023-04-16T04:45:38.830Z,6.19
2023-04-16T04:48:39.776Z,6.20
2023-04-16T04:51:39.841Z,6.22
2023-04-16T04:54:39.806Z,6.25
2023-04-16T04:57:39.767Z,6.25
2023-04-16T05:00:39.791Z,6.25
2023-04-16T05:03:39.897Z,6.27
2023-04-16T05:06:39.849Z,6.29
2023-04-16T05:09:39.794Z,6.30
2023-04-16T05:12:39.853Z,6.33
2023-04-16T05:15:39.869Z,6.37
2023-04-16T05:18:39.848Z,6.44
2023-04-16T05:21:39.889Z,6.46
2023-04-16T05:24:39.881Z,6.45
2023-04-16T05:27:39.895Z,6.48
2023-04-16T05:30:39.866Z,6.48
2023-04-16T05:33:41.027Z,6.50
2023-04-16T05:36:42.982Z,6.53
2023-04-16T05:39:42.942Z,6.56
2023-04-16T05:42:42.928Z,6.56
2023-04-16T05:45:46.911Z,6.58
2023-04-16T05:48:46.910Z,6.66
2023-04-16T05:51:47.377Z,6.74
2023-04-16T05:54:48.007Z,6.81
2023-04-16T05:57:48.892Z,6.86
2023-04-16T06:00:48.886Z,6.88
2023-04-16T06:03:48.983Z,6.86
2023-04-16T06:06:52.187Z,6.85
2023-04-16T06:09:53.950Z,6.84
2023-04-16T06:12:54.000Z,6.82
2023-04-16T06:15:55.952Z,6.84
2023-04-16T06:18:55.981Z,6.88
2023-04-16T06:21:55.925Z,6.91
2023-04-16T06:24:55.941Z,6.93
2023-04-16T06:28:14.190Z,7.01
2023-04-16T06:31:13.971Z,7.05
2023-04-16T06:34:13.944Z,7.10
2023-04-16T06:37:13.951Z,7.14
2023-04-16T06:40:14.098Z,7.16
2023-04-16T06:43:13.995Z,7.21
2023-04-16T06:46:14.069Z,7.30
2023-04-16T06:49:13.945Z,7.32
2023-04-16T06:52:14.034Z,7.28
2023-04-16T06:55:16.250Z,7.24
2023-04-16T06:58:16.034Z,7.22
2023-04-16T07:01:16.080Z,7.24
2023-04-16T07:04:17.071Z,7.31
2023-04-16T07:07:17.081Z,7.32
2023-04-16T07:10:17.033Z,7.35
2023-04-16T07:13:17.017Z,7.31
2023-04-16T07:16:17.070Z,7.26
2023-04-16T07:19:17.103Z,7.25
2023-04-16T07:22:17.048Z,7.25
2023-04-16T07:25:17.112Z,7.28
2023-04-16T07:28:17.158Z,7.34
2023-04-16T07:31:17.262Z,7.35
2023-04-16T07:34:17.097Z,7.34
2023-04-16T07:37:17.148Z,7.34
2023-04-16T07:40:17.037Z,7.30
2023-04-16T07:43:17.165Z,7.26
2023-04-16T07:46:17.154Z,7.24
2023-04-16T07:49:17.146Z,7.23
2023-04-16T07:52:18.112Z,7.23
2023-04-16T07:55:19.106Z,7.28
2023-04-16T07:58:19.132Z,7.32
2023-04-16T08:01:19.085Z,7.35
2023-04-16T08:04:20.217Z,7.40
2023-04-16T08:07:20.079Z,7.47
2023-04-16T08:10:20.170Z,7.52
2023-04-16T08:13:21.179Z,7.59
2023-04-16T08:16:22.215Z,7.63
2023-04-16T08:19:24.147Z,7.66
2023-04-16T08:22:27.147Z,7.68
2023-04-16T08:25:27.363Z,7.64
2023-04-16T08:28:27.205Z,7.60
2023-04-16T08:31:27.282Z,7.62
2023-04-16T08:34:27.380Z,7.69
2023-04-16T08:37:28.178Z,7.74
2023-04-16T08:40:28.393Z,7.79
2023-04-16T08:43:28.205Z,7.79
2023-04-16T08:46:30.423Z,7.80
2023-04-16T08:49:30.200Z,7.81
2023-04-16T08:52:31.185Z,7.80
2023-04-16T08:55:32.221Z,7.82
2023-04-16T08:58:32.223Z,7.87
2023-04-16T09:01:33.275Z,7.91
2023-04-16T09:04:33.337Z,7.93
2023-04-16T09:07:33.228Z,7.94
2023-04-16T09:10:33.233Z,7.91
2023-04-16T09:13:33.291Z,7.89
2023-04-16T09:16:33.377Z,7.88
2023-04-16T09:19:33.265Z,7.87
2023-04-16T09:22:33.653Z,7.90
2023-04-16T09:25:33.445Z,7.89
2023-04-16T09:28:51.256Z,7.84
2023-04-16T09:31:52.331Z,7.81
2023-04-16T09:35:10.285Z,7.82
2023-04-16T09:38:10.329Z,7.84
2023-04-16T09:41:19.305Z,7.84
2023-04-16T09:44:19.249Z,7.86
2023-04-16T09:47:19.342Z,7.88
2023-04-16T09:50:13.153Z,7.86
2023-04-16T09:53:14.312Z,7.84
2023-04-16T09:56:15.401Z,7.86
2023-04-16T09:59:15.356Z,7.87
2023-04-16T10:02:16.501Z,7.88
2023-04-16T10:05:16.310Z,7.87
2023-04-16T10:08:24.349Z,7.91
2023-04-16T10:11:25.300Z,7.91
2023-04-16T10:14:25.537Z,7.91
2023-04-16T10:17:25.376Z,7.93
2023-04-16T10:20:25.370Z,7.98
2023-04-16T10:23:25.457Z,8.06
2023-04-16T10:26:25.432Z,8.06
2023-04-16T10:29:25.349Z,8.11
2023-04-16T10:32:26.469Z,8.18
2023-04-16T10:35:29.392Z,8.23
2023-04-16T10:38:38.545Z,8.18
2023-04-16T10:41:41.356Z,8.08
2023-04-16T10:44:44.334Z,8.01
2023-04-16T10:47:45.485Z,7.98
2023-04-16T10:50:49.164Z,7.93
2023-04-16T10:53:50.581Z,7.87
2023-04-16T10:56:51.397Z,7.89
2023-04-16T10:59:51.495Z,7.98
2023-04-16T11:02:52.744Z,8.02
2023-04-16T11:05:59.435Z,8.01
2023-04-16T11:09:00.499Z,7.96
2023-04-16T11:12:01.456Z,7.96
2023-04-16T11:15:25.451Z,7.94
2023-04-16T11:18:25.480Z,7.92
2023-04-16T11:21:25.441Z,7.95
2023-04-16T11:24:26.321Z,8.05
2023-04-16T11:27:26.458Z,8.12
2023-04-16T11:30:26.442Z,8.15
2023-04-16T11:33:26.451Z,8.17
2023-04-16T11:38:28.847Z,8.15
2023-04-16T11:39:46.521Z,8.08
2023-04-16T11:42:50.567Z,8.01
2023-04-16T11:45:50.713Z,7.95
2023-04-16T11:49:02.503Z,7.96
2023-04-16T11:52:02.553Z,7.97
2023-04-16T11:55:03.545Z,7.92
2023-04-16T11:58:04.510Z,7.91
2023-04-16T12:01:06.499Z,7.88
2023-04-16T12:04:13.918Z,7.92
2023-04-16T12:07:26.926Z,8.00
2023-04-16T12:10:28.559Z,7.99
2023-04-16T12:13:28.605Z,8.00
2023-04-16T12:16:32.171Z,8.05
2023-04-16T12:19:33.576Z,8.16
2023-04-16T12:22:40.620Z,8.18
2023-04-16T12:25:40.560Z,8.16
2023-04-16T12:28:41.565Z,8.19
2023-04-16T12:31:50.588Z,8.16
2023-04-16T12:34:57.626Z,8.17
2023-04-16T12:37:57.622Z,8.20
2023-04-16T12:40:57.797Z,8.21
2023-04-16T12:43:57.589Z,8.19
2023-04-16T12:46:57.676Z,8.18
2023-04-16T12:49:57.611Z,8.16
2023-04-16T12:52:57.631Z,8.15
2023-04-16T12:55:57.640Z,8.14
2023-04-16T12:58:58.619Z,8.13
2023-04-16T13:01:58.764Z,8.14
2023-04-16T13:04:58.625Z,8.16
2023-04-16T13:07:59.673Z,8.20
2023-04-16T13:10:59.696Z,8.27
2023-04-16T13:14:00.632Z,8.36
2023-04-16T13:17:00.652Z,8.42
2023-04-16T13:20:00.730Z,8.48
2023-04-16T13:23:00.688Z,8.48
2023-04-16T13:26:00.628Z,8.46
2023-04-16T13:29:00.707Z,8.39
2023-04-16T13:32:00.677Z,8.37
2023-04-16T13:35:00.822Z,8.38
2023-04-16T13:38:00.928Z,8.42
2023-04-16T13:41:00.699Z,8.45
2023-04-16T13:44:00.760Z,8.45
2023-04-16T13:47:01.789Z,8.45
2023-04-16T13:50:01.718Z,8.47
2023-04-16T13:53:02.765Z,8.44
2023-04-16T13:56:02.716Z,8.39
2023-04-16T13:59:02.712Z,8.36
2023-04-16T14:02:02.857Z,8.27
2023-04-16T14:05:02.789Z,8.26
2023-04-16T14:08:03.797Z,8.27
2023-04-16T14:11:03.764Z,8.26
2023-04-16T14:14:03.784Z,8.22
2023-04-16T14:17:04.755Z,8.14
2023-04-16T14:20:04.848Z,8.10
2023-04-16T14:23:04.822Z,8.09
2023-04-16T14:26:04.750Z,8.09
2023-04-16T14:29:04.762Z,8.10
2023-04-16T14:32:08.080Z,8.10
2023-04-16T14:35:07.783Z,8.13
2023-04-16T14:38:08.799Z,8.13
2023-04-16T14:41:08.852Z,8.12
2023-04-16T14:44:09.785Z,8.14
2023-04-16T14:47:09.811Z,8.18
2023-04-16T14:50:09.836Z,8.18
2023-04-16T14:53:09.837Z,8.16
2023-04-16T14:56:10.808Z,8.11
2023-04-16T14:59:12.135Z,8.08
2023-04-16T15:02:14.116Z,8.02
2023-04-16T15:05:15.884Z,7.98
2023-04-16T15:08:16.860Z,7.99
2023-04-16T15:11:16.846Z,7.99
2023-04-16T15:14:17.002Z,7.96
2023-04-16T15:17:16.881Z,7.92
2023-04-16T15:20:16.866Z,7.89
2023-04-16T15:23:16.931Z,7.86
2023-04-16T15:26:17.093Z,7.86
2023-04-16T15:29:16.884Z,7.85
2023-04-16T15:32:16.912Z,7.84
2023-04-16T15:35:16.852Z,7.84
2023-04-16T15:38:18.008Z,7.82
2023-04-16T15:41:17.995Z,7.78
2023-04-16T15:44:17.880Z,7.76
2023-04-16T15:47:17.928Z,7.75
2023-04-16T15:50:17.951Z,7.73
2023-04-16T15:53:18.958Z,7.73
2023-04-16T15:56:18.908Z,7.74
2023-04-16T15:59:19.053Z,7.72
2023-04-16T16:02:19.070Z,7.74
2023-04-16T16:05:19.016Z,7.77
2023-04-16T16:08:19.161Z,7.78
2023-04-16T16:11:18.986Z,7.78
2023-04-16T16:14:20.033Z,7.78
2023-04-16T16:17:20.043Z,7.79
2023-04-16T16:20:20.993Z,7.79
2023-04-16T16:23:20.962Z,7.79
2023-04-16T16:26:23.277Z,7.78
2023-04-16T16:29:24.190Z,7.78
2023-04-16T16:32:27.029Z,7.80
2023-04-16T16:35:27.210Z,7.82
2023-04-16T16:38:27.113Z,7.80
2023-04-16T16:41:29.051Z,7.77
2023-04-16T16:44:29.033Z,7.73
2023-04-16T16:47:31.057Z,7.71
2023-04-16T16:50:31.043Z,7.70
2023-04-16T16:53:31.172Z,7.68
2023-04-16T16:56:33.080Z,7.68
2023-04-16T16:59:33.044Z,7.71
2023-04-16T17:02:33.144Z,7.70
2023-04-16T17:05:33.066Z,7.65
2023-04-16T17:08:33.024Z,7.65
2023-04-16T17:11:33.148Z,7.63
2023-04-16T17:14:33.042Z,7.60
2023-04-16T17:17:33.147Z,7.57
2023-04-16T17:20:33.140Z,7.53
2023-04-16T17:23:34.121Z,7.51
2023-04-16T17:26:34.151Z,7.50
2023-04-16T17:29:37.131Z,7.49
2023-04-16T17:32:38.106Z,7.46
2023-04-16T17:35:38.097Z,7.43
2023-04-16T17:38:38.169Z,7.44
2023-04-16T17:41:38.219Z,7.47
2023-04-16T17:44:38.176Z,7.51
2023-04-16T17:47:38.129Z,7.50
2023-04-16T17:50:39.712Z,7.50
2023-04-16T17:53:41.149Z,7.51
2023-04-16T17:56:41.205Z,7.51
2023-04-16T17:59:41.274Z,7.55
2023-04-16T18:02:41.309Z,7.57
2023-04-16T18:05:41.171Z,7.59
2023-04-16T18:08:43.237Z,7.59
2023-04-16T18:11:44.164Z,7.59
2023-04-16T18:14:45.205Z,7.60
2023-04-16T18:17:45.194Z,7.59
2023-04-16T18:20:45.238Z,7.57
2023-04-16T18:23:45.177Z,7.55
2023-04-16T18:26:47.022Z,7.56
2023-04-16T18:29:49.248Z,7.54
2023-04-16T18:33:16.567Z,7.53
2023-04-16T18:36:13.235Z,7.53
2023-04-16T18:39:14.223Z,7.51
2023-04-16T18:42:14.245Z,7.50
2023-04-16T18:45:21.887Z,7.51
2023-04-16T18:48:22.229Z,7.50
2023-04-16T18:51:22.361Z,7.49
2023-04-16T18:54:22.276Z,7.51
2023-04-16T18:57:22.242Z,7.51
2023-04-16T19:00:22.305Z,7.51
2023-04-16T19:03:22.308Z,7.54
2023-04-16T19:06:23.256Z,7.59
2023-04-16T19:09:24.294Z,7.59
2023-04-16T19:12:24.241Z,7.60
2023-04-16T19:15:24.266Z,7.60
2023-04-16T19:18:24.248Z,7.60
2023-04-16T19:21:24.303Z,7.60
2023-04-16T19:24:25.332Z,7.60
2023-04-16T19:27:25.310Z,7.61
2023-04-16T19:30:25.295Z,7.64
2023-04-16T19:33:25.310Z,7.64
2023-04-16T19:36:25.364Z,7.67
2023-04-16T19:39:25.312Z,7.68
2023-04-16T19:42:25.373Z,7.69
2023-04-16T19:45:29.409Z,7.71
2023-04-16T19:48:30.323Z,7.70
2023-04-16T19:51:30.341Z,7.70
2023-04-16T19:54:30.417Z,7.68
2023-04-16T19:57:30.372Z,7.66
2023-04-16T20:00:30.394Z,7.66
2023-04-16T20:03:30.395Z,7.66
2023-04-16T20:06:30.344Z,7.65
2023-04-16T20:09:31.384Z,7.66
2023-04-16T20:12:31.393Z,7.66
2023-04-16T20:15:31.398Z,7.66
2023-04-16T20:18:32.385Z,7.67
2023-04-16T20:21:34.409Z,7.67
2023-04-16T20:24:36.419Z,7.67
2023-04-16T20:27:36.414Z,7.68
2023-04-16T20:30:36.400Z,7.66
2023-04-16T20:33:37.451Z,7.63
2023-04-16T20:36:37.398Z,7.59
2023-04-16T20:39:40.443Z,7.59
2023-04-16T20:42:40.422Z,7.54
2023-04-16T20:45:46.445Z,7.47
2023-04-16T20:48:46.424Z,7.42
2023-04-16T20:51:46.436Z,7.40
2023-04-16T20:54:46.539Z,7.36
2023-04-16T20:57:46.507Z,7.31
2023-04-16T21:00:47.441Z,7.27
2023-04-16T21:03:47.610Z,7.25
2023-04-16T21:06:48.456Z,7.25
2023-04-16T21:09:48.439Z,7.22
2023-04-16T21:12:48.494Z,7.23
2023-04-16T21:15:48.531Z,7.24
2023-04-16T21:18:49.480Z,7.24
2023-04-16T21:21:50.480Z,7.26
2023-04-16T21:24:50.500Z,7.28
2023-04-16T21:27:50.576Z,7.29
2023-04-16T21:30:50.540Z,7.30
2023-04-16T21:33:51.493Z,7.29
2023-04-16T21:36:52.531Z,7.29
2023-04-16T21:39:53.533Z,7.26
2023-04-16T21:42:53.504Z,7.23
2023-04-16T21:45:53.537Z,7.18
2023-04-16T21:48:54.534Z,7.17
2023-04-16T21:51:55.571Z,7.15
2023-04-16T21:54:57.549Z,7.15
2023-04-16T21:57:58.526Z,7.08
2023-04-16T22:01:00.584Z,7.01
2023-04-16T22:04:00.760Z,6.96
2023-04-16T22:07:02.036Z,6.93
2023-04-16T22:10:02.616Z,6.92
2023-04-16T22:13:02.587Z,6.91
2023-04-16T22:16:03.705Z,6.87
2023-04-16T22:19:03.623Z,6.88
2023-04-16T22:22:03.600Z,6.90
2023-04-16T22:25:03.650Z,6.90
2023-04-16T22:28:03.583Z,6.87
2023-04-16T22:31:03.671Z,6.85
2023-04-16T22:34:04.634Z,6.85
2023-04-16T22:37:04.603Z,6.87
2023-04-16T22:40:04.661Z,6.87
2023-04-16T22:43:04.635Z,6.88
2023-04-16T22:46:13.648Z,6.86
2023-04-16T22:49:13.941Z,6.83
2023-04-16T22:52:13.605Z,6.83
2023-04-16T22:55:13.673Z,6.82
2023-04-16T22:58:13.769Z,6.78
2023-04-16T23:01:14.801Z,6.72
2023-04-16T23:04:14.714Z,6.64
2023-04-16T23:07:14.678Z,6.62
2023-04-16T23:10:14.728Z,6.61
2023-04-16T23:13:15.678Z,6.60
2023-04-16T23:16:15.733Z,6.58
2023-04-16T23:19:20.676Z,6.59
2023-04-16T23:22:20.699Z,6.59
2023-04-16T23:25:20.713Z,6.58
2023-04-16T23:28:20.704Z,6.56
2023-04-16T23:31:20.774Z,6.56
2023-04-16T23:34:20.767Z,6.55
2023-04-16T23:37:20.702Z,6.57
2023-04-16T23:40:20.784Z,6.60
2023-04-16T23:43:20.742Z,6.62
2023-04-16T23:46:20.843Z,6.64
2023-04-16T23:49:20.799Z,6.67
2023-04-16T23:52:20.719Z,6.69
2023-04-16T23:55:20.752Z,6.69
2023-04-16T23:58:20.779Z,6.68
